Time;durP1;ratioP1;P1;durP2;ratioP2;P2;SDS_P1;SDS_P2;PMS_P1;PMS_P2;Temp;Humidity;BMP_temperature;BMP_pressure;BME280_temperature;BME280_humidity;BME280_pressure;Samples;Min_cycle;Max_cycle;Signal;HPM_P1;HPM_P2
2022/12/02 00:02:14;;;;;;;61.57;31.77;;;1.10;99.90;;;;;;5234516;28;21018;-52
2022/12/02 00:04:45;;;;;;;65.50;31.97;;;1.10;99.90;;;;;;5248148;28;20557;-53
2022/12/02 00:07:19;;;;;;;63.00;31.83;;;1.10;99.90;;;;;;5266982;28;20953;-52
2022/12/02 00:09:50;;;;;;;65.53;31.10;;;1.10;99.90;;;;;;5266993;28;20189;-53
2022/12/02 00:12:23;;;;;;;65.00;31.60;;;1.10;99.90;;;;;;5244635;28;20835;-53
2022/12/02 00:15:00;;;;;;;61.77;31.63;;;1.20;99.90;;;;;;5265359;28;20427;-50
2022/12/02 00:17:30;;;;;;;63.97;31.23;;;1.20;99.90;;;;;;5256478;28;20951;-55
2022/12/02 00:20:01;;;;;;;65.53;31.87;;;1.20;99.90;;;;;;5251480;28;20434;-52
2022/12/02 00:22:31;;;;;;;57.87;29.93;;;1.20;99.90;;;;;;5241277;28;20217;-53
2022/12/02 00:25:02;;;;;;;64.40;32.97;;;1.10;99.90;;;;;;5250823;28;20181;-51
2022/12/02 00:27:33;;;;;;;68.03;32.40;;;1.20;99.90;;;;;;5268233;28;20197;-53
2022/12/02 00:30:04;;;;;;;66.33;32.37;;;1.10;99.90;;;;;;5263325;28;20193;-53
2022/12/02 00:32:34;;;;;;;63.13;29.80;;;1.20;99.90;;;;;;5263758;28;20571;-52
2022/12/02 00:35:05;;;;;;;62.60;32.37;;;1.20;99.90;;;;;;5266787;28;20446;-52
2022/12/02 00:37:36;;;;;;;83.90;30.90;;;1.20;99.90;;;;;;5249246;28;20539;-52
2022/12/02 00:40:07;;;;;;;63.03;31.47;;;1.20;99.90;;;;;;5267622;28;20439;-53
2022/12/02 00:42:38;;;;;;;66.73;31.47;;;1.20;99.90;;;;;;5244938;28;20613;-53
2022/12/02 00:48:00;;;;;;;70.63;31.13;;;1.20;99.90;;;;;;5267099;28;20211;-51
2022/12/02 00:50:30;;;;;;;65.70;33.03;;;1.20;99.90;;;;;;5262000;28;20442;-54
2022/12/02 00:53:01;;;;;;;64.80;31.77;;;1.20;99.90;;;;;;5260448;28;20194;-51
2022/12/02 00:55:32;;;;;;;82.77;31.90;;;1.20;99.90;;;;;;5248854;28;20177;-51
2022/12/02 00:58:03;;;;;;;65.40;30.97;;;1.20;99.90;;;;;;5260446;28;20431;-52
2022/12/02 01:00:33;;;;;;;67.00;32.07;;;1.20;99.90;;;;;;5243972;28;20565;-52
2022/12/02 01:03:04;;;;;;;69.93;31.73;;;1.20;99.90;;;;;;5254594;28;20212;-51
2022/12/02 01:05:35;;;;;;;71.33;32.87;;;1.20;99.90;;;;;;5258426;28;20228;-51
2022/12/02 01:08:05;;;;;;;69.67;33.27;;;1.30;99.90;;;;;;5244177;28;20174;-50
2022/12/02 01:10:36;;;;;;;69.77;33.00;;;1.20;99.90;;;;;;5252993;28;20177;-52
2022/12/02 01:13:07;;;;;;;71.87;33.20;;;1.20;99.90;;;;;;5255117;28;20205;-51
2022/12/02 01:15:37;;;;;;;75.03;32.47;;;1.20;99.90;;;;;;5249066;28;20733;-50
2022/12/02 01:18:08;;;;;;;67.93;32.37;;;1.30;99.90;;;;;;5256237;28;20275;-51
2022/12/02 01:20:38;;;;;;;66.90;33.33;;;1.30;99.90;;;;;;5255808;28;20261;-50
2022/12/02 01:23:09;;;;;;;72.20;32.50;;;1.20;99.90;;;;;;5244325;28;20213;-51
2022/12/02 01:25:40;;;;;;;70.80;33.30;;;1.20;99.90;;;;;;5257198;28;20264;-51
2022/12/02 01:28:10;;;;;;;73.70;32.63;;;1.20;99.90;;;;;;5244765;28;20311;-52
2022/12/02 01:30:41;;;;;;;63.73;32.53;;;1.20;99.90;;;;;;5256411;28;20182;-51
2022/12/02 01:33:12;;;;;;;68.13;34.10;;;1.20;99.90;;;;;;5256301;28;20196;-52
2022/12/02 01:35:43;;;;;;;64.30;31.93;;;1.20;99.90;;;;;;5254947;28;20176;-51
2022/12/02 01:38:13;;;;;;;64.67;30.37;;;1.30;99.90;;;;;;5256316;28;20183;-53
2022/12/02 01:40:44;;;;;;;70.47;33.27;;;1.30;99.90;;;;;;5257195;28;20173;-51
2022/12/02 01:43:15;;;;;;;65.73;31.27;;;1.30;99.90;;;;;;5259998;28;20205;-52
2022/12/02 01:45:46;;;;;;;64.80;31.17;;;1.20;99.90;;;;;;5249331;28;20432;-51
2022/12/02 01:48:17;;;;;;;71.73;32.93;;;1.30;99.90;;;;;;5246803;28;20705;-51
2022/12/02 01:50:48;;;;;;;65.67;30.13;;;1.30;99.90;;;;;;5244733;28;20198;-51
2022/12/02 01:53:19;;;;;;;64.23;32.50;;;1.30;99.90;;;;;;5260740;28;20280;-52
2022/12/02 01:55:50;;;;;;;73.23;32.10;;;1.30;99.90;;;;;;5260387;28;20881;-51
2022/12/02 01:58:28;;;;;;;71.10;32.93;;;1.30;99.90;;;;;;5253817;28;20230;-53
2022/12/02 02:00:59;;;;;;;62.60;29.60;;;1.20;99.90;;;;;;5241659;28;20243;-52
2022/12/02 02:03:30;;;;;;;64.17;28.97;;;1.30;99.90;;;;;;5241499;28;20438;-52
2022/12/02 02:06:00;;;;;;;61.83;30.80;;;1.30;99.90;;;;;;5240423;28;22020;-52
2022/12/02 02:08:31;;;;;;;79.83;33.27;;;1.30;99.90;;;;;;5252398;28;20190;-51
2022/12/02 02:11:01;;;;;;;64.43;31.83;;;1.30;99.90;;;;;;5254141;28;23521;-52
2022/12/02 02:13:32;;;;;;;64.87;30.63;;;1.30;99.90;;;;;;5250779;28;20179;-51
2022/12/02 02:16:03;;;;;;;68.87;30.83;;;1.30;99.90;;;;;;5258664;28;20182;-52
2022/12/02 02:18:34;;;;;;;59.00;31.60;;;1.30;99.90;;;;;;5246970;28;20182;-51
2022/12/02 02:21:08;;;;;;;62.10;31.80;;;1.40;99.90;;;;;;5254791;28;20269;-52
2022/12/02 02:23:39;;;;;;;70.17;32.07;;;1.30;99.90;;;;;;5237734;22;20594;-50
2022/12/02 02:26:10;;;;;;;61.67;30.90;;;1.30;99.90;;;;;;5220354;28;20442;-50
2022/12/02 02:28:40;;;;;;;72.13;32.83;;;1.30;99.90;;;;;;5197065;28;20183;-49
2022/12/02 02:31:11;;;;;;;63.63;30.80;;;1.30;99.90;;;;;;5201046;28;20338;-49
2022/12/02 02:33:42;;;;;;;59.80;30.47;;;1.30;99.90;;;;;;5219907;28;20207;-50
2022/12/02 02:36:12;;;;;;;62.93;30.23;;;1.20;99.90;;;;;;5208936;28;20565;-49
2022/12/02 02:38:43;;;;;;;61.27;32.27;;;1.30;99.90;;;;;;5199947;28;20190;-50
2022/12/02 02:41:14;;;;;;;61.00;29.67;;;1.30;99.90;;;;;;5224643;28;20735;-51
2022/12/02 02:43:45;;;;;;;60.67;30.17;;;1.30;99.90;;;;;;5239821;28;20459;-49
2022/12/02 02:46:16;;;;;;;71.63;32.33;;;1.20;99.90;;;;;;5224459;28;20188;-51
2022/12/02 02:48:48;;;;;;;67.83;32.67;;;1.20;99.90;;;;;;5220469;28;20773;-50
2022/12/02 02:51:19;;;;;;;58.60;30.70;;;1.20;99.90;;;;;;5206991;28;20677;-51
2022/12/02 02:53:50;;;;;;;69.93;31.30;;;1.30;99.90;;;;;;5210732;28;20457;-50
2022/12/02 02:56:20;;;;;;;60.50;30.60;;;1.20;99.90;;;;;;5238049;28;20550;-51
2022/12/02 02:58:52;;;;;;;56.17;30.03;;;1.20;99.90;;;;;;5215795;28;20220;-50
2022/12/02 03:01:28;;;;;;;62.37;30.27;;;1.30;99.90;;;;;;5210626;28;20201;-52
2022/12/02 03:04:06;;;;;;;65.13;31.70;;;1.20;99.90;;;;;;5224544;28;20427;-51
2022/12/02 03:06:39;;;;;;;68.60;30.07;;;1.20;99.90;;;;;;5226805;28;20443;-50
2022/12/02 03:09:13;;;;;;;59.10;30.00;;;1.20;99.90;;;;;;5231513;28;20463;-50
2022/12/02 03:11:46;;;;;;;66.33;29.50;;;1.20;99.90;;;;;;5227761;28;20472;-51
2022/12/02 03:14:17;;;;;;;61.63;29.83;;;1.20;99.90;;;;;;5209512;28;20433;-51
2022/12/02 03:16:49;;;;;;;68.43;30.30;;;1.20;99.90;;;;;;5225359;28;20442;-49
2022/12/02 03:19:20;;;;;;;70.33;31.83;;;1.20;99.90;;;;;;5185307;28;20442;-50
2022/12/02 03:21:51;;;;;;;61.73;30.00;;;1.10;99.90;;;;;;5206086;28;20473;-49
2022/12/02 03:24:21;;;;;;;66.33;30.00;;;1.10;99.90;;;;;;5226830;28;20189;-50
2022/12/02 03:26:52;;;;;;;58.10;27.57;;;1.20;99.90;;;;;;5223579;28;20182;-51
2022/12/02 03:29:23;;;;;;;65.03;31.13;;;1.10;99.90;;;;;;5220275;28;20191;-53
2022/12/02 03:31:56;;;;;;;59.13;31.37;;;1.10;99.90;;;;;;5218822;28;20690;-50
2022/12/02 03:34:27;;;;;;;62.77;29.33;;;1.10;99.90;;;;;;5242862;28;20184;-49
2022/12/02 03:36:58;;;;;;;57.77;29.50;;;1.10;99.90;;;;;;5195836;28;20429;-49
2022/12/02 03:39:29;;;;;;;60.60;28.53;;;1.20;99.90;;;;;;5225589;28;20431;-50
2022/12/02 03:42:00;;;;;;;61.97;29.40;;;1.20;99.90;;;;;;5202737;28;20457;-49
2022/12/02 03:44:31;;;;;;;56.50;28.00;;;1.20;99.90;;;;;;5229869;28;20711;-49
2022/12/02 03:47:02;;;;;;;64.53;29.30;;;1.20;99.90;;;;;;5209208;28;20217;-50
2022/12/02 03:49:34;;;;;;;58.47;28.90;;;1.20;99.90;;;;;;5232727;28;20186;-51
2022/12/02 03:52:05;;;;;;;64.33;29.07;;;1.30;99.90;;;;;;5211595;28;20507;-51
2022/12/02 03:54:36;;;;;;;52.63;27.57;;;1.20;99.90;;;;;;5207891;28;20430;-52
2022/12/02 03:57:07;;;;;;;53.37;28.67;;;1.20;99.90;;;;;;5217292;28;20258;-49
2022/12/02 03:59:38;;;;;;;52.43;27.00;;;1.20;99.90;;;;;;5217922;28;20437;-55
2022/12/02 04:02:09;;;;;;;63.40;29.80;;;1.20;99.90;;;;;;5220165;28;20971;-51
2022/12/02 04:04:39;;;;;;;55.83;27.23;;;1.30;99.90;;;;;;5220034;28;20187;-51
2022/12/02 04:07:10;;;;;;;64.10;28.90;;;1.10;99.90;;;;;;5225757;28;20270;-50
2022/12/02 04:09:40;;;;;;;46.13;25.27;;;1.20;99.90;;;;;;5217489;28;20181;-50
2022/12/02 04:12:11;;;;;;;48.93;26.80;;;1.20;99.90;;;;;;5225928;28;20214;-50
2022/12/02 04:14:42;;;;;;;49.53;24.70;;;1.10;99.90;;;;;;5227645;28;20174;-50
2022/12/02 04:17:12;;;;;;;54.10;25.90;;;1.20;99.90;;;;;;5217313;28;20211;-50
2022/12/02 04:19:43;;;;;;;53.20;25.87;;;1.20;99.90;;;;;;5224382;28;20230;-51
2022/12/02 04:22:14;;;;;;;49.93;26.30;;;1.30;99.90;;;;;;5211519;28;20222;-50
2022/12/02 04:24:44;;;;;;;47.37;24.30;;;1.20;99.90;;;;;;5218520;28;20189;-50
2022/12/02 04:27:15;;;;;;;55.53;26.63;;;1.20;99.90;;;;;;5220745;28;20191;-50
2022/12/02 04:29:46;;;;;;;55.03;25.90;;;1.20;99.90;;;;;;5224281;28;20198;-49
2022/12/02 04:32:17;;;;;;;38.77;22.73;;;1.30;99.90;;;;;;5205459;28;20295;-49
2022/12/02 04:34:47;;;;;;;45.60;25.30;;;1.20;99.90;;;;;;5226734;28;20182;-55
2022/12/02 04:37:18;;;;;;;43.97;23.80;;;1.30;99.90;;;;;;5233187;28;20429;-49
2022/12/02 04:39:48;;;;;;;43.27;22.73;;;1.30;99.90;;;;;;5214581;28;20189;-51
2022/12/02 04:42:19;;;;;;;45.50;24.43;;;1.30;99.90;;;;;;5214163;28;20294;-53
2022/12/02 04:44:50;;;;;;;40.83;22.43;;;1.30;99.90;;;;;;5226008;28;20267;-50
2022/12/02 04:47:20;;;;;;;49.70;23.20;;;1.30;99.90;;;;;;5215770;28;20247;-52
2022/12/02 04:49:51;;;;;;;40.00;22.23;;;1.40;99.90;;;;;;5211046;28;20213;-51
2022/12/02 04:52:21;;;;;;;44.77;22.27;;;1.50;99.90;;;;;;5229730;28;20233;-49
2022/12/02 04:54:52;;;;;;;49.77;23.97;;;1.30;99.90;;;;;;5220517;28;20177;-52
2022/12/02 04:57:23;;;;;;;41.83;21.73;;;1.40;99.90;;;;;;5211727;28;20281;-49
2022/12/02 04:59:53;;;;;;;41.20;20.90;;;1.40;99.90;;;;;;5231356;28;20539;-53
2022/12/02 05:02:24;;;;;;;40.20;22.10;;;1.30;99.90;;;;;;5225217;28;20634;-51
2022/12/02 05:04:54;;;;;;;44.50;22.43;;;1.30;99.90;;;;;;5211564;28;20200;-51
2022/12/02 05:07:25;;;;;;;36.83;21.83;;;1.40;99.90;;;;;;5222186;28;20194;-52
2022/12/02 05:09:56;;;;;;;41.97;22.07;;;1.40;99.90;;;;;;5224192;28;20211;-50
2022/12/02 05:12:26;;;;;;;34.20;19.40;;;1.40;99.90;;;;;;5228268;28;20821;-50
2022/12/02 05:14:57;;;;;;;33.63;18.70;;;1.40;99.90;;;;;;5213643;28;20215;-50
2022/12/02 05:17:29;;;;;;;41.60;20.70;;;1.40;99.90;;;;;;5211905;28;20541;-49
2022/12/02 05:20:00;;;;;;;36.30;20.17;;;1.50;99.90;;;;;;5209496;28;20186;-50
2022/12/02 05:22:30;;;;;;;36.43;20.03;;;1.40;99.90;;;;;;5235562;28;21008;-50
2022/12/02 05:25:01;;;;;;;38.30;19.10;;;1.40;99.90;;;;;;5219232;28;20186;-53
2022/12/02 05:27:32;;;;;;;36.83;19.47;;;1.40;99.90;;;;;;5234223;28;20609;-51
2022/12/02 05:30:04;;;;;;;36.37;19.20;;;1.50;99.90;;;;;;5226631;28;20594;-52
2022/12/02 05:32:35;;;;;;;37.40;19.40;;;1.40;99.90;;;;;;5237326;28;20217;-50
2022/12/02 05:35:06;;;;;;;34.20;19.30;;;1.40;99.90;;;;;;5211892;28;20829;-51
2022/12/02 05:37:36;;;;;;;33.93;19.17;;;1.50;99.90;;;;;;5219187;28;20198;-51
2022/12/02 05:40:08;;;;;;;33.50;19.80;;;1.50;99.90;;;;;;5210044;28;20591;-51
2022/12/02 05:42:39;;;;;;;32.07;18.80;;;1.40;99.90;;;;;;5223650;28;20201;-52
2022/12/02 05:45:21;;;;;;;39.10;20.20;;;1.40;99.90;;;;;;5217874;28;20441;-51
2022/12/02 05:47:53;;;;;;;34.87;20.00;;;1.40;99.90;;;;;;5222765;28;20473;-51
2022/12/02 05:50:24;;;;;;;37.60;20.40;;;1.50;99.90;;;;;;5217383;28;20433;-56
2022/12/02 05:52:55;;;;;;;31.13;18.07;;;1.50;99.90;;;;;;5212156;28;20468;-54
2022/12/02 05:55:26;;;;;;;33.17;19.43;;;1.50;99.90;;;;;;5221550;28;20191;-49
2022/12/02 05:58:01;;;;;;;35.73;19.47;;;1.50;99.90;;;;;;5232767;28;20178;-49
2022/12/02 06:00:32;;;;;;;36.00;20.33;;;1.40;99.90;;;;;;5208880;28;21000;-50
2022/12/02 06:03:07;;;;;;;33.50;19.90;;;1.40;99.90;;;;;;5204634;28;20460;-50
2022/12/02 06:05:42;;;;;;;34.97;20.27;;;1.40;99.90;;;;;;5204131;28;20201;-52
2022/12/02 06:08:21;;;;;;;34.37;19.60;;;1.40;99.90;;;;;;5205445;28;20468;-50
2022/12/02 06:11:04;;;;;;;40.07;20.97;;;1.40;99.90;;;;;;5184367;28;20533;-50
2022/12/02 06:13:37;;;;;;;33.57;19.03;;;1.40;99.90;;;;;;5222588;28;20472;-51
2022/12/02 06:16:23;;;;;;;36.93;20.87;;;1.50;99.90;;;;;;5188239;28;20874;-49
2022/12/02 06:18:54;;;;;;;33.23;20.20;;;1.40;99.90;;;;;;5216027;28;20946;-50
2022/12/02 06:21:26;;;;;;;33.70;18.67;;;1.40;99.90;;;;;;5218499;28;20444;-51
2022/12/02 06:24:00;;;;;;;37.23;18.53;;;1.50;99.90;;;;;;5211457;28;20446;-49
2022/12/02 06:26:30;;;;;;;38.47;19.93;;;1.40;99.90;;;;;;5203576;28;20933;-51
2022/12/02 06:29:02;;;;;;;35.33;19.40;;;1.50;99.90;;;;;;5221486;28;20484;-50
2022/12/02 06:31:38;;;;;;;45.53;19.83;;;1.40;99.90;;;;;;5219475;28;20213;-50
2022/12/02 06:34:23;;;;;;;36.20;19.07;;;1.50;99.90;;;;;;5185561;28;20943;-51
2022/12/02 06:37:00;;;;;;;36.63;19.20;;;1.40;99.90;;;;;;5214882;28;20464;-48
2022/12/02 06:39:30;;;;;;;35.53;20.80;;;1.40;99.90;;;;;;5218335;28;20509;-49
2022/12/02 06:42:05;;;;;;;33.73;20.03;;;1.40;99.90;;;;;;5217999;28;20508;-50
2022/12/02 06:47:31;;;;;;;39.07;20.33;;;1.40;99.90;;;;;;5203507;28;21095;-49
2022/12/02 06:50:05;;;;;;;32.00;18.20;;;1.40;99.90;;;;;;5219000;28;20433;-56
2022/12/02 06:52:43;;;;;;;31.23;18.00;;;1.40;99.90;;;;;;5213384;28;20479;-54
2022/12/02 06:55:34;;;;;;;34.20;19.93;;;1.50;99.90;;;;;;5214040;28;20441;-53
2022/12/02 06:58:20;;;;;;;35.90;19.90;;;1.40;99.90;;;;;;5201779;28;20445;-50
2022/12/02 07:00:51;;;;;;;34.33;19.63;;;1.40;99.90;;;;;;5222148;28;21000;-49
2022/12/02 07:03:34;;;;;;;34.77;18.60;;;1.50;99.90;;;;;;5218697;28;20544;-51
2022/12/02 07:06:18;;;;;;;35.63;18.00;;;1.50;99.90;;;;;;5210061;28;21192;-51
2022/12/02 07:08:48;;;;;;;35.63;19.90;;;1.40;99.90;;;;;;5199105;28;21121;-50
2022/12/02 07:11:50;;;;;;;35.87;19.90;;;1.40;99.90;;;;;;5224801;28;20456;-50
2022/12/02 07:14:42;;;;;;;38.90;21.50;;;1.40;99.90;;;;;;5191482;28;20185;-50
2022/12/02 07:17:35;;;;;;;33.03;18.40;;;1.40;99.90;;;;;;5220243;28;20952;-51
2022/12/02 07:20:05;;;;;;;37.83;19.37;;;1.50;99.90;;;;;;5222793;28;20433;-51
2022/12/02 07:22:46;;;;;;;35.30;18.33;;;1.50;99.90;;;;;;5228226;28;20464;-49
2022/12/02 07:25:26;;;;;;;39.20;19.77;;;1.40;99.90;;;;;;5198893;28;20270;-54
2022/12/02 07:27:57;;;;;;;39.47;19.60;;;1.50;99.90;;;;;;5215128;28;20430;-52
2022/12/02 07:30:32;;;;;;;40.43;19.00;;;1.50;99.90;;;;;;5223073;28;20962;-51
2022/12/02 07:33:02;;;;;;;32.07;18.87;;;1.50;99.90;;;;;;5215676;28;20566;-52
2022/12/02 07:35:33;;;;;;;35.07;18.53;;;1.60;99.90;;;;;;5199869;28;20442;-51
2022/12/02 07:38:04;;;;;;;35.47;18.90;;;1.70;99.90;;;;;;5215914;28;20182;-51
2022/12/02 07:40:34;;;;;;;41.23;20.00;;;1.60;99.90;;;;;;5209329;28;20189;-49
2022/12/02 07:43:05;;;;;;;45.13;18.47;;;1.50;99.90;;;;;;5221211;28;20702;-49
2022/12/02 07:45:36;;;;;;;34.53;18.90;;;1.50;99.90;;;;;;5222525;28;20305;-50
2022/12/02 07:48:06;;;;;;;46.63;21.73;;;1.50;99.90;;;;;;5206943;28;20198;-51
2022/12/02 07:50:37;;;;;;;38.50;19.97;;;1.40;99.90;;;;;;5215459;28;20445;-54
2022/12/02 07:53:08;;;;;;;40.97;20.47;;;1.40;99.90;;;;;;5226845;28;20217;-51
2022/12/02 07:55:39;;;;;;;37.80;19.80;;;1.40;99.90;;;;;;5206530;28;20195;-49
2022/12/02 07:58:09;;;;;;;42.23;20.83;;;1.40;99.90;;;;;;5205064;28;20494;-51
2022/12/02 08:00:40;;;;;;;34.50;19.83;;;1.40;99.90;;;;;;5223026;28;20175;-51
2022/12/02 08:03:10;;;;;;;36.73;19.83;;;1.40;99.90;;;;;;5215729;28;20213;-51
2022/12/02 08:05:41;;;;;;;40.47;21.80;;;1.40;99.90;;;;;;5215359;28;20234;-50
2022/12/02 08:08:12;;;;;;;52.97;23.27;;;1.40;99.90;;;;;;5225190;28;20655;-48
2022/12/02 08:10:42;;;;;;;46.47;22.67;;;1.30;99.90;;;;;;5223167;28;20179;-49
2022/12/02 08:13:13;;;;;;;41.23;21.80;;;1.30;99.90;;;;;;5223382;28;20202;-52
2022/12/02 08:15:43;;;;;;;45.80;21.17;;;1.30;99.90;;;;;;5204495;28;20214;-54
2022/12/02 08:18:14;;;;;;;42.37;22.10;;;1.30;99.90;;;;;;5227084;28;20206;-50
2022/12/02 08:20:45;;;;;;;33.70;19.57;;;1.30;99.90;;;;;;5219104;28;20905;-53
2022/12/02 08:23:15;;;;;;;41.80;20.50;;;1.40;99.90;;;;;;5228653;23;20736;-52
2022/12/02 08:25:46;;;;;;;36.67;19.33;;;1.30;99.90;;;;;;5202969;28;20179;-52
2022/12/02 08:28:17;;;;;;;48.40;21.90;;;1.30;99.90;;;;;;5207046;28;20177;-50
2022/12/02 08:30:48;;;;;;;39.17;20.60;;;1.30;99.90;;;;;;5218666;28;20256;-50
2022/12/02 08:33:18;;;;;;;41.30;19.47;;;1.30;99.90;;;;;;5206842;28;20681;-50
2022/12/02 08:35:49;;;;;;;34.47;20.53;;;1.30;99.90;;;;;;5203503;28;20187;-49
2022/12/02 08:38:20;;;;;;;42.03;19.30;;;1.40;99.90;;;;;;5228752;28;20272;-54
2022/12/02 08:40:51;;;;;;;37.50;19.47;;;1.40;99.90;;;;;;5210269;28;20178;-50
2022/12/02 08:43:22;;;;;;;39.97;19.43;;;1.40;99.90;;;;;;5209993;28;20202;-51
2022/12/02 08:45:52;;;;;;;36.80;19.67;;;1.40;99.90;;;;;;5203428;28;20438;-50
2022/12/02 08:48:23;;;;;;;37.60;20.20;;;1.40;99.90;;;;;;5215220;28;20174;-50
2022/12/02 08:50:54;;;;;;;35.87;20.23;;;1.40;99.90;;;;;;5213284;28;20264;-55
2022/12/02 08:53:24;;;;;;;39.10;19.60;;;1.50;99.90;;;;;;5212899;28;20575;-53
2022/12/02 08:55:57;;;;;;;40.10;20.53;;;1.50;99.90;;;;;;5208719;28;20178;-50
2022/12/02 08:58:28;;;;;;;30.83;17.93;;;1.60;99.90;;;;;;5203697;28;20193;-50
2022/12/02 09:00:59;;;;;;;39.30;18.67;;;1.50;99.90;;;;;;5207165;28;20442;-50
2022/12/02 09:03:30;;;;;;;37.53;18.73;;;1.50;99.90;;;;;;5200346;28;20663;-52
2022/12/02 09:06:01;;;;;;;34.67;18.13;;;1.50;99.90;;;;;;5211688;28;20333;-50
2022/12/02 09:08:31;;;;;;;34.97;18.73;;;1.60;99.90;;;;;;5228206;28;21046;-51
2022/12/02 09:11:02;;;;;;;36.10;18.37;;;1.60;99.90;;;;;;5211625;28;20497;-52
2022/12/02 09:13:33;;;;;;;36.67;20.03;;;1.60;99.90;;;;;;5210851;28;20206;-49
2022/12/02 09:16:04;;;;;;;41.90;20.33;;;1.60;99.90;;;;;;5230820;28;20174;-51
2022/12/02 09:18:35;;;;;;;43.97;20.47;;;1.70;99.90;;;;;;5232814;28;20429;-49
2022/12/02 09:21:06;;;;;;;41.93;19.23;;;1.80;99.90;;;;;;5201465;28;20450;-54
2022/12/02 09:23:37;;;;;;;43.30;20.53;;;1.80;99.90;;;;;;5227264;28;20469;-51
2022/12/02 09:26:08;;;;;;;43.47;20.03;;;1.70;99.90;;;;;;5212522;28;20186;-50
2022/12/02 09:28:38;;;;;;;39.77;19.77;;;1.80;99.90;;;;;;5212044;28;20171;-50
2022/12/02 09:31:09;;;;;;;42.33;19.93;;;1.80;99.90;;;;;;5204218;28;20695;-50
2022/12/02 09:33:40;;;;;;;37.37;19.03;;;1.70;99.90;;;;;;5206043;28;20719;-52
2022/12/02 09:36:11;;;;;;;51.67;20.40;;;1.70;99.90;;;;;;5211533;28;20722;-51
2022/12/02 09:38:41;;;;;;;42.70;20.37;;;1.80;99.90;;;;;;5214870;28;20273;-51
2022/12/02 09:41:12;;;;;;;38.10;19.67;;;1.80;99.90;;;;;;5230452;28;20205;-51
2022/12/02 09:43:43;;;;;;;37.90;19.43;;;1.80;99.90;;;;;;5230145;28;20244;-50
2022/12/02 09:46:13;;;;;;;45.33;21.27;;;1.70;99.90;;;;;;5229299;28;20193;-49
2022/12/02 09:48:44;;;;;;;38.13;20.47;;;1.70;99.90;;;;;;5222533;28;20183;-52
2022/12/02 09:51:15;;;;;;;36.40;18.30;;;1.70;99.90;;;;;;5214606;28;20294;-50
2022/12/02 09:53:46;;;;;;;38.10;19.37;;;1.80;99.90;;;;;;5200954;28;20195;-49
2022/12/02 09:56:19;;;;;;;42.77;18.87;;;1.70;99.90;;;;;;5223955;28;20214;-52
2022/12/02 09:58:53;;;;;;;40.10;20.57;;;1.80;99.90;;;;;;5183792;28;20453;-50
2022/12/02 10:01:25;;;;;;;39.90;18.03;;;1.70;99.90;;;;;;5226028;28;20437;-50
2022/12/02 10:03:56;;;;;;;36.67;18.90;;;1.70;99.90;;;;;;5192101;28;20448;-50
2022/12/02 10:06:28;;;;;;;41.90;21.60;;;1.60;99.90;;;;;;5208535;28;20437;-51
2022/12/02 10:08:58;;;;;;;41.40;19.60;;;1.70;99.90;;;;;;5217834;28;20815;-47
2022/12/02 10:11:31;;;;;;;46.00;21.60;;;1.70;99.90;;;;;;5207136;28;20543;-49
2022/12/02 10:14:05;;;;;;;40.50;18.80;;;1.70;99.90;;;;;;5203546;28;20230;-49
2022/12/02 10:16:37;;;;;;;44.00;22.07;;;1.70;99.90;;;;;;5215428;28;20539;-50
2022/12/02 10:19:15;;;;;;;42.20;20.07;;;1.70;99.90;;;;;;5225480;28;20434;-50
2022/12/02 10:21:47;;;;;;;35.07;18.73;;;1.60;99.90;;;;;;5216011;28;20437;-50
2022/12/02 10:24:38;;;;;;;50.00;22.80;;;1.70;99.90;;;;;;5205811;28;20438;-50
2022/12/02 10:27:21;;;;;;;50.20;23.03;;;1.60;99.90;;;;;;5225767;28;20437;-48
2022/12/02 10:29:52;;;;;;;42.43;20.07;;;1.70;99.90;;;;;;5227154;28;20417;-48
2022/12/02 10:32:26;;;;;;;49.57;21.50;;;1.60;99.90;;;;;;5207435;28;20472;-50
2022/12/02 10:35:08;;;;;;;48.43;21.27;;;1.60;99.90;;;;;;5207847;28;20442;-50
2022/12/02 10:37:39;;;;;;;47.00;22.97;;;1.60;99.90;;;;;;5195768;28;20440;-48
2022/12/02 10:40:20;;;;;;;51.20;24.00;;;1.50;99.90;;;;;;5200737;28;22263;-49
2022/12/02 10:43:19;;;;;;;40.30;21.90;;;1.50;99.90;;;;;;5222144;28;20333;-49
2022/12/02 10:45:56;;;;;;;55.77;25.73;;;1.50;99.90;;;;;;5200644;28;20491;-51
2022/12/02 10:48:27;;;;;;;47.20;22.73;;;1.60;99.90;;;;;;5221167;28;20432;-50
2022/12/02 10:50:58;;;;;;;58.87;24.20;;;1.60;99.90;;;;;;5206487;28;20565;-50
2022/12/02 10:53:30;;;;;;;51.77;24.73;;;1.60;99.90;;;;;;5204257;28;20203;-49
2022/12/02 10:56:00;;;;;;;52.77;23.00;;;1.60;99.90;;;;;;5221577;28;20433;-50
2022/12/02 10:58:31;;;;;;;52.93;23.60;;;1.60;99.90;;;;;;5204122;28;20481;-50
2022/12/02 11:01:07;;;;;;;50.70;23.67;;;1.60;99.90;;;;;;5226298;28;20443;-51
2022/12/02 11:03:39;;;;;;;51.30;22.27;;;1.70;99.90;;;;;;5219330;28;20332;-52
2022/12/02 11:06:28;;;;;;;50.97;23.97;;;1.80;99.90;;;;;;5201603;28;20474;-51
2022/12/02 11:08:59;;;;;;;56.83;24.93;;;1.70;99.90;;;;;;5222012;28;20432;-49
2022/12/02 11:11:30;;;;;;;52.03;22.90;;;1.70;99.90;;;;;;5201774;28;20554;-50
2022/12/02 11:14:04;;;;;;;67.47;25.77;;;1.80;99.90;;;;;;5203596;28;20201;-48
2022/12/02 11:16:35;;;;;;;62.30;27.40;;;1.70;99.90;;;;;;5224503;28;20192;-49
2022/12/02 11:19:11;;;;;;;53.77;27.00;;;1.60;99.90;;;;;;5197318;28;20434;-49
2022/12/02 11:21:44;;;;;;;60.23;26.40;;;1.60;99.90;;;;;;5210293;28;20269;-50
2022/12/02 11:24:26;;;;;;;57.93;25.90;;;1.70;99.90;;;;;;5207347;28;20452;-51
2022/12/02 11:27:01;;;;;;;61.43;25.83;;;1.70;99.90;;;;;;5214123;28;20963;-51
2022/12/02 11:29:32;;;;;;;63.17;25.47;;;1.60;99.90;;;;;;5212491;28;20438;-50
2022/12/02 11:32:37;;;;;;;58.43;25.33;;;1.60;99.90;;;;;;5208908;28;21080;-49
2022/12/02 11:35:14;;;;;;;67.57;26.87;;;1.60;99.90;;;;;;5227245;28;20680;-51
2022/12/02 11:37:48;;;;;;;58.70;27.03;;;1.60;99.90;;;;;;5225320;28;20439;-48
2022/12/02 11:40:18;;;;;;;64.20;28.70;;;1.60;99.90;;;;;;5212497;28;20440;-51
2022/12/02 11:42:51;;;;;;;53.03;25.57;;;1.50;99.90;;;;;;5214907;28;20469;-50
2022/12/02 11:45:22;;;;;;;55.30;25.37;;;1.60;99.90;;;;;;5228118;28;20186;-50
2022/12/02 11:47:52;;;;;;;57.63;25.83;;;1.60;99.90;;;;;;5214222;28;20433;-53
2022/12/02 11:50:33;;;;;;;55.03;24.50;;;1.60;99.90;;;;;;5202859;28;20183;-48
2022/12/02 11:53:10;;;;;;;54.63;27.27;;;1.50;99.90;;;;;;5220034;28;20556;-51
2022/12/02 11:55:47;;;;;;;54.17;26.40;;;1.60;99.90;;;;;;5205635;28;21042;-47
2022/12/02 11:58:21;;;;;;;71.20;27.00;;;1.60;99.90;;;;;;5224604;28;20435;-47
2022/12/02 12:01:01;;;;;;;67.20;25.60;;;1.60;99.90;;;;;;5220127;28;20480;-49
2022/12/02 12:03:32;;;;;;;47.83;24.97;;;1.60;99.90;;;;;;5225942;28;20461;-53
2022/12/02 12:06:18;;;;;;;52.60;25.03;;;1.60;99.90;;;;;;5229612;28;20463;-48
2022/12/02 12:08:51;;;;;;;65.27;25.37;;;1.50;99.90;;;;;;5195736;28;20619;-49
2022/12/02 12:11:34;;;;;;;57.10;26.90;;;1.50;99.90;;;;;;5201101;28;20469;-47
2022/12/02 12:14:10;;;;;;;70.40;27.57;;;1.60;99.90;;;;;;5187773;28;20468;-48
2022/12/02 12:16:45;;;;;;;56.00;27.23;;;1.50;99.90;;;;;;5215628;28;20425;-47
2022/12/02 12:19:15;;;;;;;63.77;26.13;;;1.50;99.90;;;;;;5205466;28;20437;-52
2022/12/02 12:21:51;;;;;;;55.50;26.13;;;1.60;99.90;;;;;;5220256;28;20806;-50
2022/12/02 12:24:25;;;;;;;58.20;27.40;;;1.50;99.90;;;;;;5218484;28;20267;-53
2022/12/02 12:27:01;;;;;;;52.70;26.37;;;1.50;99.90;;;;;;5213225;28;20979;-50
2022/12/02 12:29:34;;;;;;;57.87;27.20;;;1.50;99.90;;;;;;5212766;28;20436;-55
2022/12/02 12:32:06;;;;;;;47.33;25.47;;;1.50;99.90;;;;;;5221958;28;20480;-49
2022/12/02 12:34:37;;;;;;;55.40;28.47;;;1.50;99.90;;;;;;5194895;28;20442;-51
2022/12/02 12:37:08;;;;;;;63.87;28.10;;;1.50;99.90;;;;;;5196984;28;20449;-53
2022/12/02 12:39:39;;;;;;;54.37;24.90;;;1.40;99.90;;;;;;5195565;28;20448;-52
2022/12/02 12:42:10;;;;;;;65.63;27.17;;;1.50;99.90;;;;;;5212084;28;20469;-51
2022/12/02 12:44:40;;;;;;;63.63;25.30;;;1.50;99.90;;;;;;5216930;28;20185;-49
2022/12/02 12:47:11;;;;;;;55.97;25.63;;;1.40;99.90;;;;;;5201151;28;20191;-49
2022/12/02 12:49:42;;;;;;;48.07;24.70;;;1.40;99.90;;;;;;5214977;28;20194;-52
2022/12/02 12:52:13;;;;;;;60.33;27.43;;;1.40;99.90;;;;;;5193175;28;20261;-49
2022/12/02 12:54:49;;;;;;;59.07;24.97;;;1.40;99.90;;;;;;5215131;28;20262;-48
2022/12/02 12:57:20;;;;;;;56.67;24.17;;;1.40;99.90;;;;;;5210756;28;20425;-50
2022/12/02 12:59:50;;;;;;;60.57;26.80;;;1.30;99.90;;;;;;5201190;28;20448;-52
2022/12/02 13:02:21;;;;;;;58.00;25.73;;;1.40;99.90;;;;;;5199816;28;20602;-50
2022/12/02 13:04:52;;;;;;;64.27;25.93;;;1.40;99.90;;;;;;5192742;28;20204;-48
2022/12/02 13:07:23;;;;;;;53.03;24.60;;;1.40;99.90;;;;;;5221815;28;20185;-49
2022/12/02 13:09:53;;;;;;;54.30;25.10;;;1.40;99.90;;;;;;5192969;28;20248;-50